sensor_id;sensor_type;location;lat;lon;timestamp;pressure;altitude;pressure_sealevel;temperature;humidity
49342;BME280;35210;41.606;-87.602;2023-03-01T00:01:21;99067.00;;;10.29;54.86
49342;BME280;35210;41.606;-87.602;2023-03-01T00:03:49;99061.00;;;10.27;54.74
49342;BME280;35210;41.606;-87.602;2023-03-01T00:06:18;99064.22;;;10.19;55.46
49342;BME280;35210;41.606;-87.602;2023-03-01T00:08:47;99066.31;;;10.04;55.87
49342;BME280;35210;41.606;-87.602;2023-03-01T00:11:18;99054.22;;;9.91;56.96
49342;BME280;35210;41.606;-87.602;2023-03-01T00:13:48;99054.13;;;9.81;56.91
49342;BME280;35210;41.606;-87.602;2023-03-01T00:16:24;99043.09;;;9.76;57.29
49342;BME280;35210;41.606;-87.602;2023-03-01T00:18:53;99050.66;;;9.69;57.39
49342;BME280;35210;41.606;-87.602;2023-03-01T00:21:22;99061.97;;;9.60;57.56
49342;BME280;35210;41.606;-87.602;2023-03-01T00:23:51;99073.31;;;9.72;57.27
49342;BME280;35210;41.606;-87.602;2023-03-01T00:26:21;99080.38;;;9.71;57.23
49342;BME280;35210;41.606;-87.602;2023-03-01T00:28:49;99075.22;;;9.70;57.62
49342;BME280;35210;41.606;-87.602;2023-03-01T00:31:20;99070.19;;;9.78;57.35
49342;BME280;35210;41.606;-87.602;2023-03-01T00:33:50;99066.00;;;9.75;57.19
49342;BME280;35210;41.606;-87.602;2023-03-01T00:36:19;99068.19;;;9.59;58.36
49342;BME280;35210;41.606;-87.602;2023-03-01T00:38:48;99072.25;;;9.52;57.60
49342;BME280;35210;41.606;-87.602;2023-03-01T00:41:18;99084.00;;;9.48;58.55
49342;BME280;35210;41.606;-87.602;2023-03-01T00:43:46;99079.69;;;9.36;57.73
49342;BME280;35210;41.606;-87.602;2023-03-01T00:46:16;99080.53;;;9.36;58.42
49342;BME280;35210;41.606;-87.602;2023-03-01T00:48:46;99064.59;;;9.38;58.47
49342;BME280;35210;41.606;-87.602;2023-03-01T00:51:15;99061.47;;;9.44;58.32
49342;BME280;35210;41.606;-87.602;2023-03-01T00:53:44;99076.34;;;9.34;58.60
49342;BME280;35210;41.606;-87.602;2023-03-01T00:56:14;99080.16;;;9.30;57.67
49342;BME280;35210;41.606;-87.602;2023-03-01T00:58:42;99070.34;;;9.32;57.09
49342;BME280;35210;41.606;-87.602;2023-03-01T01:01:12;99064.00;;;9.23;57.05
49342;BME280;35210;41.606;-87.602;2023-03-01T01:03:47;99057.63;;;9.14;57.49
49342;BME280;35210;41.606;-87.602;2023-03-01T01:06:18;99062.28;;;9.00;58.34
49342;BME280;35210;41.606;-87.602;2023-03-01T01:08:47;99052.69;;;8.99;57.63
49342;BME280;35210;41.606;-87.602;2023-03-01T01:11:15;99055.34;;;8.99;57.17
49342;BME280;35210;41.606;-87.602;2023-03-01T01:13:45;99047.56;;;8.86;56.97
49342;BME280;35210;41.606;-87.602;2023-03-01T01:16:14;99035.09;;;8.77;58.02
49342;BME280;35210;41.606;-87.602;2023-03-01T01:18:43;99026.81;;;8.70;58.67
49342;BME280;35210;41.606;-87.602;2023-03-01T01:21:14;99019.91;;;8.80;57.92
49342;BME280;35210;41.606;-87.602;2023-03-01T01:23:44;99022.41;;;8.82;56.41
49342;BME280;35210;41.606;-87.602;2023-03-01T01:26:16;99024.31;;;8.80;56.72
49342;BME280;35210;41.606;-87.602;2023-03-01T01:28:45;99034.28;;;8.87;55.30
49342;BME280;35210;41.606;-87.602;2023-03-01T01:31:13;99026.31;;;8.65;56.51
49342;BME280;35210;41.606;-87.602;2023-03-01T01:33:41;99031.97;;;8.72;56.54
49342;BME280;35210;41.606;-87.602;2023-03-01T01:36:10;99029.81;;;8.77;56.08
49342;BME280;35210;41.606;-87.602;2023-03-01T01:38:40;99031.28;;;8.81;55.67
49342;BME280;35210;41.606;-87.602;2023-03-01T01:41:10;99027.19;;;8.77;56.41
49342;BME280;35210;41.606;-87.602;2023-03-01T01:43:40;99028.63;;;8.81;56.49
49342;BME280;35210;41.606;-87.602;2023-03-01T01:46:18;99032.25;;;8.91;56.10
49342;BME280;35210;41.606;-87.602;2023-03-01T01:48:53;99030.06;;;8.96;56.32
49342;BME280;35210;41.606;-87.602;2023-03-01T01:51:27;99043.97;;;8.98;56.19
49342;BME280;35210;41.606;-87.602;2023-03-01T01:54:10;99040.00;;;8.93;56.72
49342;BME280;35210;41.606;-87.602;2023-03-01T01:56:41;99047.44;;;9.10;55.61
49342;BME280;35210;41.606;-87.602;2023-03-01T01:59:12;99043.50;;;9.04;56.12
49342;BME280;35210;41.606;-87.602;2023-03-01T02:01:41;99043.84;;;9.11;56.16
49342;BME280;35210;41.606;-87.602;2023-03-01T02:04:09;99045.41;;;9.13;55.35
49342;BME280;35210;41.606;-87.602;2023-03-01T02:06:40;99047.56;;;9.19;55.25
49342;BME280;35210;41.606;-87.602;2023-03-01T02:09:14;99052.47;;;9.13;56.34
49342;BME280;35210;41.606;-87.602;2023-03-01T02:11:44;99056.78;;;9.14;56.12
49342;BME280;35210;41.606;-87.602;2023-03-01T02:14:12;99056.31;;;9.09;55.93
49342;BME280;35210;41.606;-87.602;2023-03-01T02:16:41;99057.63;;;9.26;55.55
49342;BME280;35210;41.606;-87.602;2023-03-01T02:19:15;99053.44;;;9.23;56.57
49342;BME280;35210;41.606;-87.602;2023-03-01T02:21:53;99062.19;;;9.12;56.78
49342;BME280;35210;41.606;-87.602;2023-03-01T02:24:31;99067.69;;;9.09;57.41
49342;BME280;35210;41.606;-87.602;2023-03-01T02:27:02;99059.06;;;9.18;57.22
49342;BME280;35210;41.606;-87.602;2023-03-01T02:29:33;99061.47;;;9.21;56.74
49342;BME280;35210;41.606;-87.602;2023-03-01T02:32:03;99055.59;;;9.18;56.85
49342;BME280;35210;41.606;-87.602;2023-03-01T02:34:32;99044.72;;;9.22;57.42
49342;BME280;35210;41.606;-87.602;2023-03-01T02:37:02;99056.81;;;9.25;57.29
49342;BME280;35210;41.606;-87.602;2023-03-01T02:39:33;99048.91;;;9.25;57.21
49342;BME280;35210;41.606;-87.602;2023-03-01T02:42:10;99048.31;;;9.21;57.84
49342;BME280;35210;41.606;-87.602;2023-03-01T02:44:41;99048.66;;;9.17;57.87
49342;BME280;35210;41.606;-87.602;2023-03-01T02:47:09;99044.22;;;9.17;58.40
49342;BME280;35210;41.606;-87.602;2023-03-01T02:49:37;99048.66;;;9.17;58.79
49342;BME280;35210;41.606;-87.602;2023-03-01T02:52:21;99045.91;;;9.18;58.59
49342;BME280;35210;41.606;-87.602;2023-03-01T02:54:58;99043.16;;;9.20;58.51
49342;BME280;35210;41.606;-87.602;2023-03-01T02:57:31;99036.09;;;9.20;58.86
49342;BME280;35210;41.606;-87.602;2023-03-01T03:00:03;99038.59;;;9.22;58.77
49342;BME280;35210;41.606;-87.602;2023-03-01T03:02:35;99038.72;;;9.20;59.35
49342;BME280;35210;41.606;-87.602;2023-03-01T03:05:06;99030.94;;;9.19;59.50
49342;BME280;35210;41.606;-87.602;2023-03-01T03:07:36;99025.44;;;9.22;59.48
49342;BME280;35210;41.606;-87.602;2023-03-01T03:10:07;99015.72;;;9.22;58.96
49342;BME280;35210;41.606;-87.602;2023-03-01T03:12:37;99003.03;;;9.16;60.14
49342;BME280;35210;41.606;-87.602;2023-03-01T03:15:09;98997.53;;;9.19;59.33
49342;BME280;35210;41.606;-87.602;2023-03-01T03:17:40;98976.94;;;9.25;59.97
49342;BME280;35210;41.606;-87.602;2023-03-01T03:20:11;98962.56;;;9.29;59.32
49342;BME280;35210;41.606;-87.602;2023-03-01T03:22:45;98933.94;;;9.24;60.77
49342;BME280;35210;41.606;-87.602;2023-03-01T03:25:13;98927.97;;;9.11;61.25
49342;BME280;35210;41.606;-87.602;2023-03-01T03:27:42;98920.66;;;9.03;61.34
49342;BME280;35210;41.606;-87.602;2023-03-01T03:30:15;98917.91;;;9.05;60.89
49342;BME280;35210;41.606;-87.602;2023-03-01T03:32:45;98905.38;;;8.86;61.75
49342;BME280;35210;41.606;-87.602;2023-03-01T03:35:20;98922.47;;;8.92;62.55
49342;BME280;35210;41.606;-87.602;2023-03-01T03:37:48;98919.03;;;8.80;63.00
49342;BME280;35210;41.606;-87.602;2023-03-01T03:40:37;98928.00;;;8.88;63.38
49342;BME280;35210;41.606;-87.602;2023-03-01T03:43:07;98933.13;;;9.01;63.51
49342;BME280;35210;41.606;-87.602;2023-03-01T03:45:37;98928.81;;;9.11;63.39
49342;BME280;35210;41.606;-87.602;2023-03-01T03:48:07;98928.56;;;9.03;64.08
49342;BME280;35210;41.606;-87.602;2023-03-01T03:50:35;98919.72;;;9.04;64.39
49342;BME280;35210;41.606;-87.602;2023-03-01T03:53:05;98912.41;;;9.08;65.04
49342;BME280;35210;41.606;-87.602;2023-03-01T03:55:33;98899.00;;;9.11;65.24
49342;BME280;35210;41.606;-87.602;2023-03-01T03:58:06;98878.88;;;9.10;65.69
49342;BME280;35210;41.606;-87.602;2023-03-01T04:00:37;98883.06;;;9.12;65.61
49342;BME280;35210;41.606;-87.602;2023-03-01T04:03:06;98891.09;;;9.00;65.99
49342;BME280;35210;41.606;-87.602;2023-03-01T04:05:35;98900.69;;;9.01;66.24
49342;BME280;35210;41.606;-87.602;2023-03-01T04:08:04;98894.56;;;9.00;66.70
49342;BME280;35210;41.606;-87.602;2023-03-01T04:10:35;98870.63;;;9.14;66.76
49342;BME280;35210;41.606;-87.602;2023-03-01T04:13:04;98859.00;;;9.17;67.46
49342;BME280;35210;41.606;-87.602;2023-03-01T04:15:33;98864.84;;;9.20;67.23
49342;BME280;35210;41.606;-87.602;2023-03-01T04:18:04;98865.69;;;9.21;68.56
49342;BME280;35210;41.606;-87.602;2023-03-01T04:20:34;98882.59;;;9.18;68.73
49342;BME280;35210;41.606;-87.602;2023-03-01T04:23:04;98901.97;;;9.17;68.79
49342;BME280;35210;41.606;-87.602;2023-03-01T04:25:40;98916.56;;;9.33;68.63
49342;BME280;35210;41.606;-87.602;2023-03-01T04:28:09;98912.72;;;9.37;68.62
49342;BME280;35210;41.606;-87.602;2023-03-01T04:30:38;98899.09;;;9.32;68.94
49342;BME280;35210;41.606;-87.602;2023-03-01T04:33:10;98862.03;;;9.44;68.84
49342;BME280;35210;41.606;-87.602;2023-03-01T04:35:38;98825.47;;;9.51;69.23
49342;BME280;35210;41.606;-87.602;2023-03-01T04:38:06;98843.81;;;9.52;70.27
49342;BME280;35210;41.606;-87.602;2023-03-01T04:40:35;98820.91;;;9.53;70.06
49342;BME280;35210;41.606;-87.602;2023-03-01T04:43:03;98821.03;;;9.51;70.20
49342;BME280;35210;41.606;-87.602;2023-03-01T04:45:32;98838.19;;;9.46;70.16
49342;BME280;35210;41.606;-87.602;2023-03-01T04:48:02;98840.84;;;9.46;70.43
49342;BME280;35210;41.606;-87.602;2023-03-01T04:50:33;98866.00;;;9.39;71.34
49342;BME280;35210;41.606;-87.602;2023-03-01T04:53:01;98876.75;;;9.47;71.25
49342;BME280;35210;41.606;-87.602;2023-03-01T04:55:29;98854.59;;;9.49;70.59
49342;BME280;35210;41.606;-87.602;2023-03-01T04:57:57;98835.78;;;9.54;70.51
49342;BME280;35210;41.606;-87.602;2023-03-01T05:00:26;98816.16;;;9.47;71.15
49342;BME280;35210;41.606;-87.602;2023-03-01T05:02:55;98806.78;;;9.54;71.43
49342;BME280;35210;41.606;-87.602;2023-03-01T05:05:26;98807.75;;;9.53;70.79
49342;BME280;35210;41.606;-87.602;2023-03-01T05:07:58;98813.25;;;9.50;71.00
49342;BME280;35210;41.606;-87.602;2023-03-01T05:10:28;98805.81;;;9.55;70.16
49342;BME280;35210;41.606;-87.602;2023-03-01T05:12:56;98769.75;;;9.55;70.84
49342;BME280;35210;41.606;-87.602;2023-03-01T05:15:25;98765.13;;;9.48;70.92
49342;BME280;35210;41.606;-87.602;2023-03-01T05:17:54;98774.63;;;9.39;71.92
49342;BME280;35210;41.606;-87.602;2023-03-01T05:20:24;98749.69;;;9.43;73.63
49342;BME280;35210;41.606;-87.602;2023-03-01T05:22:57;98734.72;;;9.44;74.84
49342;BME280;35210;41.606;-87.602;2023-03-01T05:25:26;98719.41;;;9.38;75.23
49342;BME280;35210;41.606;-87.602;2023-03-01T05:27:59;98700.31;;;9.25;75.87
49342;BME280;35210;41.606;-87.602;2023-03-01T05:30:31;98677.19;;;9.07;76.47
49342;BME280;35210;41.606;-87.602;2023-03-01T05:32:59;98666.94;;;8.93;78.12
49342;BME280;35210;41.606;-87.602;2023-03-01T05:35:27;98651.13;;;8.72;79.23
49342;BME280;35210;41.606;-87.602;2023-03-01T05:37:58;98647.88;;;8.80;78.61
49342;BME280;35210;41.606;-87.602;2023-03-01T05:40:26;98668.44;;;8.86;78.39
49342;BME280;35210;41.606;-87.602;2023-03-01T05:42:56;98745.25;;;8.91;78.65
49342;BME280;35210;41.606;-87.602;2023-03-01T05:45:26;98789.16;;;8.91;79.51
49342;BME280;35210;41.606;-87.602;2023-03-01T05:47:55;98779.28;;;9.04;79.60
49342;BME280;35210;41.606;-87.602;2023-03-01T05:50:25;98760.50;;;9.08;78.28
49342;BME280;35210;41.606;-87.602;2023-03-01T05:52:59;98721.09;;;9.07;78.93
49342;BME280;35210;41.606;-87.602;2023-03-01T05:55:29;98697.41;;;9.07;79.30
49342;BME280;35210;41.606;-87.602;2023-03-01T05:57:59;98719.09;;;8.99;79.80
49342;BME280;35210;41.606;-87.602;2023-03-01T06:00:28;98716.22;;;9.02;80.18
49342;BME280;35210;41.606;-87.602;2023-03-01T06:02:57;98731.88;;;9.04;81.18
49342;BME280;35210;41.606;-87.602;2023-03-01T06:05:26;98713.38;;;8.94;82.40
49342;BME280;35210;41.606;-87.602;2023-03-01T06:07:54;98705.75;;;8.91;83.84
49342;BME280;35210;41.606;-87.602;2023-03-01T06:10:24;98694.50;;;8.89;83.79
49342;BME280;35210;41.606;-87.602;2023-03-01T06:12:53;98720.84;;;8.89;84.77
49342;BME280;35210;41.606;-87.602;2023-03-01T06:15:21;98705.13;;;8.55;86.04
49342;BME280;35210;41.606;-87.602;2023-03-01T06:17:50;98670.94;;;8.44;88.22
49342;BME280;35210;41.606;-87.602;2023-03-01T06:20:19;98686.00;;;8.31;87.89
49342;BME280;35210;41.606;-87.602;2023-03-01T06:22:48;98751.19;;;8.39;88.53
49342;BME280;35210;41.606;-87.602;2023-03-01T06:25:18;98799.22;;;8.30;90.26
49342;BME280;35210;41.606;-87.602;2023-03-01T06:27:49;98787.56;;;8.45;90.07
49342;BME280;35210;41.606;-87.602;2023-03-01T06:30:19;98764.34;;;8.50;90.12
49342;BME280;35210;41.606;-87.602;2023-03-01T06:32:48;98743.66;;;8.45;90.07
49342;BME280;35210;41.606;-87.602;2023-03-01T06:35:18;98693.56;;;8.36;90.52
49342;BME280;35210;41.606;-87.602;2023-03-01T06:37:47;98722.00;;;8.31;90.75
49342;BME280;35210;41.606;-87.602;2023-03-01T06:40:15;98787.88;;;8.29;92.08
49342;BME280;35210;41.606;-87.602;2023-03-01T06:42:49;98821.75;;;8.34;92.46
49342;BME280;35210;41.606;-87.602;2023-03-01T06:45:19;98803.81;;;8.39;92.47
49342;BME280;35210;41.606;-87.602;2023-03-01T06:47:47;98775.59;;;8.52;91.42
49342;BME280;35210;41.606;-87.602;2023-03-01T06:50:16;98762.78;;;8.59;91.00
49342;BME280;35210;41.606;-87.602;2023-03-01T06:52:44;98759.69;;;8.53;91.49
49342;BME280;35210;41.606;-87.602;2023-03-01T06:55:13;98744.25;;;8.60;90.81
49342;BME280;35210;41.606;-87.602;2023-03-01T06:57:41;98741.00;;;8.56;91.50
49342;BME280;35210;41.606;-87.602;2023-03-01T07:00:12;98752.75;;;8.52;91.62
49342;BME280;35210;41.606;-87.602;2023-03-01T07:02:40;98767.81;;;8.50;92.34
49342;BME280;35210;41.606;-87.602;2023-03-01T07:05:08;98774.03;;;8.49;92.55
49342;BME280;35210;41.606;-87.602;2023-03-01T07:07:36;98770.09;;;8.55;92.49
49342;BME280;35210;41.606;-87.602;2023-03-01T07:10:05;98761.59;;;8.63;90.54
49342;BME280;35210;41.606;-87.602;2023-03-01T07:12:34;98773.78;;;8.52;90.79
49342;BME280;35210;41.606;-87.602;2023-03-01T07:15:02;98780.63;;;8.44;91.32
49342;BME280;35210;41.606;-87.602;2023-03-01T07:17:31;98764.00;;;8.43;91.85
49342;BME280;35210;41.606;-87.602;2023-03-01T07:19:59;98746.19;;;8.36;91.70
49342;BME280;35210;41.606;-87.602;2023-03-01T07:22:28;98745.06;;;8.27;91.92
49342;BME280;35210;41.606;-87.602;2023-03-01T07:24:56;98741.25;;;8.20;91.38
49342;BME280;35210;41.606;-87.602;2023-03-01T07:27:24;98743.44;;;8.15;91.12
49342;BME280;35210;41.606;-87.602;2023-03-01T07:29:52;98725.50;;;8.09;91.74
49342;BME280;35210;41.606;-87.602;2023-03-01T07:32:20;98705.66;;;7.94;91.61
49342;BME280;35210;41.606;-87.602;2023-03-01T07:34:51;98714.72;;;7.78;92.20
49342;BME280;35210;41.606;-87.602;2023-03-01T07:37:19;98717.00;;;7.72;92.60
49342;BME280;35210;41.606;-87.602;2023-03-01T07:39:47;98724.50;;;7.65;92.84
49342;BME280;35210;41.606;-87.602;2023-03-01T07:42:15;98706.56;;;7.59;93.14
49342;BME280;35210;41.606;-87.602;2023-03-01T07:44:43;98692.84;;;7.55;93.06
49342;BME280;35210;41.606;-87.602;2023-03-01T07:47:12;98685.78;;;7.45;94.19
49342;BME280;35210;41.606;-87.602;2023-03-01T07:49:41;98682.19;;;7.46;94.50
49342;BME280;35210;41.606;-87.602;2023-03-01T07:52:11;98675.25;;;7.45;94.78
49342;BME280;35210;41.606;-87.602;2023-03-01T07:54:43;98671.91;;;7.43;94.69
49342;BME280;35210;41.606;-87.602;2023-03-01T07:57:11;98673.13;;;7.39;95.08
49342;BME280;35210;41.606;-87.602;2023-03-01T07:59:39;98684.38;;;7.41;95.47
49342;BME280;35210;41.606;-87.602;2023-03-01T08:02:08;98683.38;;;7.31;95.57
49342;BME280;35210;41.606;-87.602;2023-03-01T08:04:38;98693.50;;;7.24;96.42
49342;BME280;35210;41.606;-87.602;2023-03-01T08:07:06;98684.78;;;7.23;96.19
49342;BME280;35210;41.606;-87.602;2023-03-01T08:09:36;98691.13;;;7.21;96.88
49342;BME280;35210;41.606;-87.602;2023-03-01T08:12:05;98681.00;;;7.39;96.02
49342;BME280;35210;41.606;-87.602;2023-03-01T08:14:33;98663.09;;;7.44;95.40
49342;BME280;35210;41.606;-87.602;2023-03-01T08:17:01;98665.50;;;7.36;95.74
49342;BME280;35210;41.606;-87.602;2023-03-01T08:19:30;98665.72;;;7.33;95.54
49342;BME280;35210;41.606;-87.602;2023-03-01T08:21:59;98660.69;;;7.30;95.48
49342;BME280;35210;41.606;-87.602;2023-03-01T08:24:29;98664.00;;;7.09;95.92
49342;BME280;35210;41.606;-87.602;2023-03-01T08:26:58;98654.56;;;7.07;96.07
49342;BME280;35210;41.606;-87.602;2023-03-01T08:29:30;98657.19;;;7.07;96.25
49342;BME280;35210;41.606;-87.602;2023-03-01T08:31:58;98653.47;;;7.09;96.13
49342;BME280;35210;41.606;-87.602;2023-03-01T08:34:26;98657.56;;;7.13;95.64
49342;BME280;35210;41.606;-87.602;2023-03-01T08:36:54;98650.63;;;7.12;95.75
49342;BME280;35210;41.606;-87.602;2023-03-01T08:39:22;98652.03;;;7.05;95.72
49342;BME280;35210;41.606;-87.602;2023-03-01T08:41:50;98647.50;;;7.07;96.17
49342;BME280;35210;41.606;-87.602;2023-03-01T08:44:20;98653.72;;;7.06;96.24
49342;BME280;35210;41.606;-87.602;2023-03-01T08:46:48;98659.81;;;7.07;96.42
49342;BME280;35210;41.606;-87.602;2023-03-01T08:49:19;98657.06;;;7.08;96.88
49342;BME280;35210;41.606;-87.602;2023-03-01T08:51:48;98665.44;;;7.13;96.86
49342;BME280;35210;41.606;-87.602;2023-03-01T08:54:18;98650.91;;;7.20;96.29
49342;BME280;35210;41.606;-87.602;2023-03-01T08:56:47;98645.41;;;7.23;95.88
49342;BME280;35210;41.606;-87.602;2023-03-01T08:59:20;98631.09;;;7.28;95.38
49342;BME280;35210;41.606;-87.602;2023-03-01T09:01:48;98636.94;;;7.31;95.51
49342;BME280;35210;41.606;-87.602;2023-03-01T09:04:16;98641.84;;;7.36;95.57
49342;BME280;35210;41.606;-87.602;2023-03-01T09:06:44;98637.09;;;7.41;94.09
49342;BME280;35210;41.606;-87.602;2023-03-01T09:09:13;98638.75;;;7.42;94.09
49342;BME280;35210;41.606;-87.602;2023-03-01T09:11:43;98638.03;;;7.40;93.74
49342;BME280;35210;41.606;-87.602;2023-03-01T09:14:16;98628.69;;;7.47;93.09
49342;BME280;35210;41.606;-87.602;2023-03-01T09:16:46;98629.19;;;7.52;92.12
49342;BME280;35210;41.606;-87.602;2023-03-01T09:19:14;98627.41;;;7.64;91.02
49342;BME280;35210;41.606;-87.602;2023-03-01T09:21:42;98614.84;;;7.45;91.46
49342;BME280;35210;41.606;-87.602;2023-03-01T09:24:19;98619.88;;;7.37;91.68
49342;BME280;35210;41.606;-87.602;2023-03-01T09:26:48;98603.16;;;7.49;91.84
49342;BME280;35210;41.606;-87.602;2023-03-01T09:29:16;98603.63;;;7.43;91.18
49342;BME280;35210;41.606;-87.602;2023-03-01T09:31:46;98600.75;;;7.46;91.21
49342;BME280;35210;41.606;-87.602;2023-03-01T09:34:14;98603.91;;;7.40;92.10
49342;BME280;35210;41.606;-87.602;2023-03-01T09:36:49;98614.38;;;7.29;92.10
49342;BME280;35210;41.606;-87.602;2023-03-01T09:39:18;98634.41;;;7.18;92.81
49342;BME280;35210;41.606;-87.602;2023-03-01T09:41:57;98618.44;;;7.21;94.07
49342;BME280;35210;41.606;-87.602;2023-03-01T09:44:35;98627.66;;;7.38;92.62
49342;BME280;35210;41.606;-87.602;2023-03-01T09:47:10;98621.19;;;7.31;92.57
49342;BME280;35210;41.606;-87.602;2023-03-01T09:49:43;98623.34;;;7.26;92.70
49342;BME280;35210;41.606;-87.602;2023-03-01T09:52:21;98619.88;;;7.25;93.08
49342;BME280;35210;41.606;-87.602;2023-03-01T09:54:55;98608.66;;;7.23;93.00
49342;BME280;35210;41.606;-87.602;2023-03-01T09:57:30;98616.28;;;7.15;93.38
49342;BME280;35210;41.606;-87.602;2023-03-01T10:03:06;98612.94;;;7.13;92.63
49342;BME280;35210;41.606;-87.602;2023-03-01T10:05:48;98614.38;;;7.17;92.35
49342;BME280;35210;41.606;-87.602;2023-03-01T10:08:30;98599.06;;;7.11;93.25
49342;BME280;35210;41.606;-87.602;2023-03-01T10:11:03;98606.31;;;6.97;93.29
49342;BME280;35210;41.606;-87.602;2023-03-01T10:13:42;98602.25;;;6.92;94.11
49342;BME280;35210;41.606;-87.602;2023-03-01T10:16:17;98598.41;;;6.85;94.21
49342;BME280;35210;41.606;-87.602;2023-03-01T10:18:53;98604.50;;;6.86;94.35
49342;BME280;35210;41.606;-87.602;2023-03-01T10:21:23;98596.63;;;6.86;94.26
49342;BME280;35210;41.606;-87.602;2023-03-01T10:23:52;98597.81;;;6.82;94.08
49342;BME280;35210;41.606;-87.602;2023-03-01T10:26:40;98604.22;;;6.78;94.60
49342;BME280;35210;41.606;-87.602;2023-03-01T10:29:11;98601.84;;;6.75;94.97
49342;BME280;35210;41.606;-87.602;2023-03-01T10:31:42;98605.41;;;6.74;94.44
49342;BME280;35210;41.606;-87.602;2023-03-01T10:34:14;98615.56;;;6.67;94.83
49342;BME280;35210;41.606;-87.602;2023-03-01T10:36:44;98619.03;;;6.79;94.12
49342;BME280;35210;41.606;-87.602;2023-03-01T10:39:18;98619.25;;;6.76;94.01
49342;BME280;35210;41.606;-87.602;2023-03-01T10:41:55;98613.41;;;6.72;94.40
49342;BME280;35210;41.606;-87.602;2023-03-01T10:44:44;98611.72;;;6.71;94.82
49342;BME280;35210;41.606;-87.602;2023-03-01T10:47:18;98616.53;;;6.77;94.40
49342;BME280;35210;41.606;-87.602;2023-03-01T10:50:03;98618.31;;;6.77;94.51
49342;BME280;35210;41.606;-87.602;2023-03-01T10:52:34;98617.97;;;6.81;94.42
49342;BME280;35210;41.606;-87.602;2023-03-01T10:55:19;98619.03;;;6.79;94.32
49342;BME280;35210;41.606;-87.602;2023-03-01T10:58:06;98624.66;;;6.85;94.27
49342;BME280;35210;41.606;-87.602;2023-03-01T11:00:46;98618.34;;;6.88;94.10
49342;BME280;35210;41.606;-87.602;2023-03-01T11:03:19;98614.78;;;6.89;93.81
49342;BME280;35210;41.606;-87.602;2023-03-01T11:06:01;98595.69;;;6.87;93.30
49342;BME280;35210;41.606;-87.602;2023-03-01T11:08:33;98593.53;;;6.92;92.80
49342;BME280;35210;41.606;-87.602;2023-03-01T11:11:31;98594.72;;;6.88;92.74
49342;BME280;35210;41.606;-87.602;2023-03-01T11:14:03;98601.75;;;6.87;92.74
49342;BME280;35210;41.606;-87.602;2023-03-01T11:16:35;98604.00;;;6.81;93.06
49342;BME280;35210;41.606;-87.602;2023-03-01T11:19:19;98606.63;;;6.81;93.17
49342;BME280;35210;41.606;-87.602;2023-03-01T11:21:55;98611.88;;;6.81;93.13
49342;BME280;35210;41.606;-87.602;2023-03-01T11:24:29;98613.31;;;6.85;93.01
49342;BME280;35210;41.606;-87.602;2023-03-01T11:27:03;98611.31;;;6.88;92.73
49342;BME280;35210;41.606;-87.602;2023-03-01T11:29:36;98628.63;;;6.91;93.09
49342;BME280;35210;41.606;-87.602;2023-03-01T11:32:08;98619.91;;;6.90;92.27
49342;BME280;35210;41.606;-87.602;2023-03-01T11:34:42;98639.09;;;6.91;92.20
49342;BME280;35210;41.606;-87.602;2023-03-01T11:37:21;98657.72;;;6.88;92.13
49342;BME280;35210;41.606;-87.602;2023-03-01T11:39:57;98670.81;;;6.88;92.14
49342;BME280;35210;41.606;-87.602;2023-03-01T11:42:32;98664.63;;;6.89;92.38
49342;BME280;35210;41.606;-87.602;2023-03-01T11:45:08;98672.38;;;6.90;92.14
49342;BME280;35210;41.606;-87.602;2023-03-01T11:47:54;98679.31;;;6.91;91.84
49342;BME280;35210;41.606;-87.602;2023-03-01T11:50:33;98679.19;;;6.93;91.69
49342;BME280;35210;41.606;-87.602;2023-03-01T11:53:32;98678.25;;;6.94;91.69
49342;BME280;35210;41.606;-87.602;2023-03-01T11:56:11;98671.31;;;6.93;91.29
49342;BME280;35210;41.606;-87.602;2023-03-01T11:59:06;98665.34;;;6.91;91.35
49342;BME280;35210;41.606;-87.602;2023-03-01T12:01:49;98652.84;;;6.95;91.05
49342;BME280;35210;41.606;-87.602;2023-03-01T12:04:53;98629.34;;;6.93;90.07
49342;BME280;35210;41.606;-87.602;2023-03-01T12:07:29;98620.84;;;6.89;89.40
49342;BME280;35210;41.606;-87.602;2023-03-01T12:10:25;98624.06;;;6.82;89.40
49342;BME280;35210;41.606;-87.602;2023-03-01T12:16:13;98660.41;;;6.75;89.57
49342;BME280;35210;41.606;-87.602;2023-03-01T12:19:12;98665.03;;;6.72;89.83
49342;BME280;35210;41.606;-87.602;2023-03-01T12:21:57;98661.47;;;6.73;89.96
49342;BME280;35210;41.606;-87.602;2023-03-01T12:27:50;98653.59;;;6.73;89.51
49342;BME280;35210;41.606;-87.602;2023-03-01T12:30:32;98656.44;;;6.70;89.49
49342;BME280;35210;41.606;-87.602;2023-03-01T12:33:24;98652.13;;;6.69;89.29
49342;BME280;35210;41.606;-87.602;2023-03-01T12:36:19;98643.56;;;6.67;89.41
49342;BME280;35210;41.606;-87.602;2023-03-01T12:39:03;98655.13;;;6.64;89.48
49342;BME280;35210;41.606;-87.602;2023-03-01T12:41:51;98645.69;;;6.62;89.76
49342;BME280;35210;41.606;-87.602;2023-03-01T12:44:47;98631.84;;;6.59;89.35
49342;BME280;35210;41.606;-87.602;2023-03-01T12:47:31;98623.16;;;6.59;88.79
49342;BME280;35210;41.606;-87.602;2023-03-01T12:50:10;98627.22;;;6.63;88.88
49342;BME280;35210;41.606;-87.602;2023-03-01T12:52:42;98629.47;;;6.56;89.17
49342;BME280;35210;41.606;-87.602;2023-03-01T12:55:28;98636.59;;;6.54;89.32
49342;BME280;35210;41.606;-87.602;2023-03-01T12:58:02;98638.50;;;6.52;89.62
49342;BME280;35210;41.606;-87.602;2023-03-01T13:00:40;98649.94;;;6.51;89.96
49342;BME280;35210;41.606;-87.602;2023-03-01T13:03:22;98645.66;;;6.50;90.04
49342;BME280;35210;41.606;-87.602;2023-03-01T13:06:04;98656.97;;;6.51;90.02
49342;BME280;35210;41.606;-87.602;2023-03-01T13:08:40;98656.88;;;6.52;90.46
49342;BME280;35210;41.606;-87.602;2023-03-01T13:11:16;98668.09;;;6.54;90.57
49342;BME280;35210;41.606;-87.602;2023-03-01T13:13:46;98671.53;;;6.55;90.66
49342;BME280;35210;41.606;-87.602;2023-03-01T13:16:39;98676.22;;;6.63;90.78
49342;BME280;35210;41.606;-87.602;2023-03-01T13:19:13;98677.44;;;6.70;91.01
49342;BME280;35210;41.606;-87.602;2023-03-01T13:21:42;98685.81;;;6.75;91.20
49342;BME280;35210;41.606;-87.602;2023-03-01T13:24:25;98695.22;;;6.77;91.54
49342;BME280;35210;41.606;-87.602;2023-03-01T13:27:22;98715.88;;;6.82;90.78